Time;durP1;ratioP1;P1;durP2;ratioP2;P2;SDS_P1;SDS_P2;PMS_P1;PMS_P2;Temp;Humidity;BMP_temperature;BMP_pressure;BME280_temperature;BME280_humidity;BME280_pressure;Samples;Min_cycle;Max_cycle;Signal;HPM_P1;HPM_P2
2022/11/26 00:01:42;;;;;;;2.80;2.58;;;5.50;99.90;;;;;;5086283;28;20276;-81
2022/11/26 00:04:09;;;;;;;1.17;1.10;;;5.50;99.90;;;;;;5088101;28;20282;-80
2022/11/26 00:06:40;;;;;;;1.27;1.17;;;5.50;99.90;;;;;;5069605;28;20286;-80
2022/11/26 00:09:14;;;;;;;1.70;1.60;;;5.50;99.90;;;;;;5082307;28;20202;-80
2022/11/26 00:11:41;;;;;;;2.40;1.65;;;5.60;99.90;;;;;;5080656;28;20289;-80
2022/11/26 00:14:13;;;;;;;1.88;1.77;;;5.50;99.90;;;;;;5087065;28;20205;-80
2022/11/26 00:16:40;;;;;;;1.60;1.50;;;5.60;99.90;;;;;;5087545;28;20195;-80
2022/11/26 00:19:07;;;;;;;2.08;1.88;;;5.60;99.90;;;;;;5081711;28;20223;-80
2022/11/26 00:21:36;;;;;;;2.10;1.98;;;5.60;99.90;;;;;;5069604;28;20564;-80
2022/11/26 00:24:06;;;;;;;1.98;1.55;;;5.60;99.90;;;;;;5089351;28;20213;-80
2022/11/26 00:26:33;;;;;;;3.50;2.05;;;5.50;99.90;;;;;;5086729;28;20198;-80
2022/11/26 00:29:00;;;;;;;1.58;0.85;;;5.60;99.90;;;;;;5074236;28;20203;-80
2022/11/26 00:31:28;;;;;;;1.20;1.10;;;5.50;99.90;;;;;;5071325;28;20191;-80
2022/11/26 00:33:55;;;;;;;1.42;1.30;;;5.50;99.90;;;;;;5073824;28;20665;-80
2022/11/26 00:36:25;;;;;;;1.20;1.10;;;5.50;99.90;;;;;;5086524;28;20202;-80
2022/11/26 00:38:56;;;;;;;2.15;1.25;;;5.50;99.90;;;;;;5074468;28;20589;-80
2022/11/26 00:41:26;;;;;;;1.45;0.95;;;5.50;99.90;;;;;;5075417;28;20190;-80
2022/11/26 00:43:53;;;;;;;4.18;1.55;;;5.50;99.90;;;;;;5077044;28;20201;-80
2022/11/26 00:46:21;;;;;;;2.53;1.02;;;5.40;99.90;;;;;;5088481;28;20199;-80
2022/11/26 00:48:48;;;;;;;1.15;1.05;;;5.50;99.90;;;;;;5075091;28;20214;-80
2022/11/26 00:51:19;;;;;;;5.55;2.08;;;5.50;99.90;;;;;;5081232;28;20199;-80
2022/11/26 00:53:47;;;;;;;3.20;1.75;;;5.50;99.90;;;;;;5077469;28;20205;-80
2022/11/26 00:56:17;;;;;;;1.00;0.90;;;6.00;99.90;;;;;;5087291;28;20197;-80
2022/11/26 00:58:45;;;;;;;0.98;0.73;;;5.60;99.90;;;;;;5086797;28;20218;-80
2022/11/26 01:01:14;;;;;;;1.85;0.80;;;5.60;99.90;;;;;;5084733;28;20294;-81
2022/11/26 01:03:42;;;;;;;2.25;0.95;;;5.60;99.90;;;;;;5072471;28;20222;-80
2022/11/26 01:06:17;;;;;;;1.33;1.10;;;5.70;99.90;;;;;;5072996;28;20191;-80
2022/11/26 01:08:45;;;;;;;2.70;2.47;;;5.70;99.90;;;;;;5070372;28;20633;-80
2022/11/26 01:11:15;;;;;;;2.47;1.85;;;5.70;99.90;;;;;;5087170;28;20605;-80
2022/11/26 01:13:42;;;;;;;1.67;1.58;;;5.80;99.90;;;;;;5085311;28;20280;-80
2022/11/26 01:16:19;;;;;;;1.52;1.42;;;5.80;99.90;;;;;;5069580;28;20199;-81
2022/11/26 01:18:47;;;;;;;1.35;1.25;;;6.00;99.90;;;;;;5068483;28;20225;-80
2022/11/26 01:21:15;;;;;;;0.60;0.60;;;5.80;99.90;;;;;;5084628;28;20683;-81
2022/11/26 01:23:42;;;;;;;1.63;1.27;;;5.80;99.90;;;;;;5072568;28;20194;-81
2022/11/26 01:26:15;;;;;;;3.35;1.00;;;5.90;99.90;;;;;;5087108;28;20202;-81
2022/11/26 01:28:41;;;;;;;1.38;0.95;;;5.90;99.90;;;;;;5079583;28;20282;-81
2022/11/26 01:31:14;;;;;;;1.17;1.13;;;5.90;99.90;;;;;;5086369;28;20274;-82
2022/11/26 01:33:42;;;;;;;1.45;1.40;;;5.90;99.90;;;;;;5075022;28;20206;-81
2022/11/26 01:36:23;;;;;;;0.90;0.90;;;5.90;99.90;;;;;;5068549;28;20236;-81
2022/11/26 01:38:52;;;;;;;1.25;1.02;;;5.90;99.90;;;;;;5083082;28;20228;-80
2022/11/26 01:41:28;;;;;;;1.13;0.90;;;5.90;99.90;;;;;;5085543;28;20195;-81
2022/11/26 01:43:57;;;;;;;1.35;1.25;;;5.80;99.90;;;;;;5084753;28;20661;-81
2022/11/26 01:46:25;;;;;;;0.98;0.98;;;5.80;99.90;;;;;;5080523;28;20697;-80
2022/11/26 01:48:54;;;;;;;1.98;0.95;;;5.80;99.90;;;;;;5068037;28;20264;-81
2022/11/26 01:51:26;;;;;;;4.35;1.95;;;5.80;99.90;;;;;;5082607;28;20582;-81
2022/11/26 01:53:57;;;;;;;0.82;0.50;;;5.80;99.90;;;;;;5083437;28;20204;-81
2022/11/26 01:56:31;;;;;;;2.08;1.23;;;5.90;99.90;;;;;;5068034;28;20194;-81
2022/11/26 01:59:04;;;;;;;1.30;1.08;;;5.90;99.90;;;;;;5078154;28;20218;-81
2022/11/26 02:01:32;;;;;;;0.88;0.40;;;5.90;99.90;;;;;;5068481;28;20290;-80
2022/11/26 02:04:10;;;;;;;1.88;0.50;;;5.90;99.90;;;;;;5080495;28;20293;-80
2022/11/26 02:06:37;;;;;;;0.93;0.50;;;5.90;99.90;;;;;;5076687;28;20199;-81
2022/11/26 02:09:07;;;;;;;1.15;0.85;;;5.90;99.90;;;;;;5083127;28;20210;-81
2022/11/26 02:11:35;;;;;;;2.60;1.40;;;5.90;99.90;;;;;;5087163;28;20294;-81
2022/11/26 02:14:06;;;;;;;3.15;1.52;;;5.80;99.90;;;;;;5070299;28;20268;-81
2022/11/26 02:16:47;;;;;;;1.65;0.50;;;5.80;99.90;;;;;;5070823;28;20198;-81
2022/11/26 02:19:49;;;;;;;5.22;0.88;;;5.80;99.90;;;;;;5087115;28;20214;-81
2022/11/26 02:22:40;;;;;;;1.60;0.90;;;5.90;99.90;;;;;;5031007;28;20566;-81
2022/11/26 02:25:17;;;;;;;1.20;1.10;;;5.90;99.90;;;;;;5068727;28;20199;-80
2022/11/26 02:28:19;;;;;;;2.15;0.55;;;5.90;99.90;;;;;;5070816;28;20618;-81
2022/11/26 02:30:54;;;;;;;3.17;0.55;;;5.90;99.90;;;;;;5079883;28;20214;-81
2022/11/26 02:33:29;;;;;;;2.20;1.25;;;5.80;99.90;;;;;;5071548;28;20190;-81
2022/11/26 02:36:01;;;;;;;0.90;0.90;;;5.80;99.90;;;;;;5087271;28;20635;-81
2022/11/26 02:38:29;;;;;;;8.07;3.63;;;5.70;99.90;;;;;;5076292;28;20281;-81
2022/11/26 02:40:58;;;;;;;0.52;0.52;;;5.70;99.90;;;;;;5068508;28;20188;-81
2022/11/26 02:43:26;;;;;;;0.70;0.70;;;5.80;99.90;;;;;;5083183;28;20195;-80
2022/11/26 02:45:59;;;;;;;1.55;1.13;;;5.80;99.90;;;;;;5070193;28;20214;-81
2022/11/26 02:48:31;;;;;;;0.85;0.85;;;5.70;99.90;;;;;;5073270;28;20194;-81
2022/11/26 02:51:03;;;;;;;2.30;1.60;;;5.70;99.90;;;;;;5085569;28;20205;-81
2022/11/26 02:53:34;;;;;;;0.57;0.57;;;5.70;99.90;;;;;;5086635;28;20199;-80
2022/11/26 02:56:06;;;;;;;8.82;1.38;;;5.70;99.90;;;;;;5085890;28;21667;-81
2022/11/26 02:58:35;;;;;;;0.73;0.73;;;5.70;99.90;;;;;;5074464;28;20615;-81
2022/11/26 03:01:10;;;;;;;1.35;0.95;;;5.80;99.90;;;;;;5085973;28;20234;-81
2022/11/26 03:03:40;;;;;;;1.00;0.75;;;5.80;99.90;;;;;;5078704;28;20331;-82
2022/11/26 03:06:11;;;;;;;1.15;0.95;;;6.50;99.90;;;;;;5085486;28;20565;-81
2022/11/26 03:08:38;;;;;;;0.90;0.90;;;5.70;99.90;;;;;;5081657;28;20614;-81
2022/11/26 03:11:06;;;;;;;3.38;1.08;;;5.70;99.90;;;;;;5075322;28;20282;-81
2022/11/26 03:13:35;;;;;;;0.75;0.75;;;5.80;99.90;;;;;;5074559;28;20707;-81
2022/11/26 03:16:03;;;;;;;2.03;0.82;;;5.80;99.90;;;;;;5086470;28;20279;-81
2022/11/26 03:18:32;;;;;;;1.30;1.20;;;5.80;99.90;;;;;;5089569;28;20281;-80
2022/11/26 03:21:00;;;;;;;1.20;1.00;;;5.80;99.90;;;;;;5087882;28;20669;-81
2022/11/26 03:23:28;;;;;;;2.05;1.25;;;5.80;99.90;;;;;;5070860;28;20206;-81
2022/11/26 03:25:57;;;;;;;5.70;1.38;;;5.90;99.90;;;;;;5071892;28;20291;-81
2022/11/26 03:28:24;;;;;;;1.00;0.90;;;5.90;99.90;;;;;;5076933;28;20672;-81
2022/11/26 03:30:52;;;;;;;2.00;1.80;;;5.80;99.90;;;;;;5087445;28;20199;-81
2022/11/26 03:33:20;;;;;;;1.05;0.50;;;5.90;99.90;;;;;;5078230;28;20583;-81
2022/11/26 03:35:50;;;;;;;0.90;0.90;;;5.90;99.90;;;;;;5072270;28;20200;-81
2022/11/26 03:38:18;;;;;;;0.77;0.60;;;5.80;99.90;;;;;;5089569;28;20202;-81
2022/11/26 03:40:46;;;;;;;2.42;2.22;;;5.80;99.90;;;;;;5083345;28;20304;-81
2022/11/26 03:43:14;;;;;;;0.95;0.80;;;5.80;99.90;;;;;;5082117;28;20603;-80
2022/11/26 03:45:42;;;;;;;0.75;0.75;;;5.80;99.90;;;;;;5075266;28;20306;-80
2022/11/26 03:48:10;;;;;;;0.90;0.68;;;5.70;99.90;;;;;;5069426;28;20253;-81
2022/11/26 03:50:38;;;;;;;1.73;1.00;;;5.60;99.90;;;;;;5089009;28;20599;-82
2022/11/26 03:53:08;;;;;;;1.42;1.08;;;5.60;99.90;;;;;;5089780;28;20199;-81
2022/11/26 03:55:35;;;;;;;1.30;0.93;;;5.50;99.90;;;;;;5072227;28;20278;-80
2022/11/26 03:58:03;;;;;;;0.85;0.77;;;6.20;99.90;;;;;;5074796;28;20187;-80
2022/11/26 04:00:33;;;;;;;0.95;0.90;;;5.40;99.90;;;;;;5086571;28;20279;-80
2022/11/26 04:03:01;;;;;;;1.15;1.02;;;5.40;99.90;;;;;;5083034;28;20207;-80
2022/11/26 04:05:28;;;;;;;0.90;0.90;;;5.40;99.90;;;;;;5089454;28;20194;-80
2022/11/26 04:07:55;;;;;;;1.08;1.00;;;5.40;99.90;;;;;;5070373;28;20305;-81
2022/11/26 04:10:23;;;;;;;1.05;1.00;;;5.30;99.90;;;;;;5080496;28;20199;-81
2022/11/26 04:12:50;;;;;;;0.93;0.88;;;5.20;99.90;;;;;;5079852;28;20226;-81
2022/11/26 04:15:17;;;;;;;0.93;0.52;;;5.30;99.90;;;;;;5069491;28;20538;-80
2022/11/26 04:17:43;;;;;;;1.80;1.10;;;5.20;99.90;;;;;;5078279;28;20261;-81
2022/11/26 04:20:11;;;;;;;1.75;0.57;;;5.30;99.90;;;;;;5069290;28;20302;-81
2022/11/26 04:22:38;;;;;;;2.83;1.35;;;5.30;99.90;;;;;;5081711;28;20221;-80
2022/11/26 04:25:05;;;;;;;0.68;0.68;;;5.20;99.90;;;;;;5089939;28;20213;-80
2022/11/26 04:27:33;;;;;;;2.00;1.20;;;5.20;99.90;;;;;;5085109;28;20238;-80
2022/11/26 04:30:00;;;;;;;0.52;0.47;;;5.20;99.90;;;;;;5069809;28;20207;-80
2022/11/26 04:32:27;;;;;;;1.45;1.10;;;5.00;99.90;;;;;;5082426;28;20290;-81
2022/11/26 04:34:54;;;;;;;1.45;0.80;;;5.10;99.90;;;;;;5081880;28;20198;-80
2022/11/26 04:37:21;;;;;;;0.50;0.50;;;5.20;99.90;;;;;;5088574;28;20199;-81
2022/11/26 04:39:48;;;;;;;1.30;0.95;;;5.10;99.90;;;;;;5087288;28;20634;-80
2022/11/26 04:42:15;;;;;;;1.20;1.10;;;5.10;99.90;;;;;;5074452;28;20270;-80
2022/11/26 04:44:43;;;;;;;3.25;1.05;;;5.00;99.90;;;;;;5078630;28;20205;-81
2022/11/26 04:47:09;;;;;;;0.63;0.63;;;5.00;99.90;;;;;;5067798;28;20556;-81
2022/11/26 04:49:36;;;;;;;0.55;0.50;;;5.00;99.90;;;;;;5070206;28;20381;-82
2022/11/26 04:52:03;;;;;;;0.90;0.82;;;4.60;99.90;;;;;;5083600;28;20202;-81
2022/11/26 04:54:30;;;;;;;2.28;1.10;;;4.90;99.90;;;;;;5075792;28;20210;-80
2022/11/26 04:56:57;;;;;;;1.17;1.08;;;4.90;99.90;;;;;;5069381;28;20206;-81
2022/11/26 04:59:24;;;;;;;0.80;0.80;;;4.70;99.90;;;;;;5082260;28;20238;-81
2022/11/26 05:01:52;;;;;;;3.10;2.10;;;4.80;99.90;;;;;;5083728;28;20589;-80
2022/11/26 05:04:19;;;;;;;0.57;0.57;;;4.70;99.90;;;;;;5070411;28;20214;-81
2022/11/26 05:06:46;;;;;;;0.70;0.70;;;4.70;99.90;;;;;;5077240;28;20194;-80
2022/11/26 05:09:13;;;;;;;0.90;0.90;;;4.70;99.90;;;;;;5076469;28;20227;-80
2022/11/26 05:11:39;;;;;;;0.88;0.88;;;4.70;99.90;;;;;;5088442;28;20203;-81
2022/11/26 05:14:06;;;;;;;5.13;0.65;;;4.60;99.90;;;;;;5067186;28;20218;-81
2022/11/26 05:16:33;;;;;;;4.10;1.05;;;4.60;99.90;;;;;;5071091;28;20731;-82
2022/11/26 05:19:01;;;;;;;2.15;1.25;;;4.50;99.90;;;;;;5089047;28;20299;-81
2022/11/26 05:21:28;;;;;;;1.20;1.05;;;4.40;99.90;;;;;;5087685;28;20196;-80
2022/11/26 05:23:55;;;;;;;0.60;0.52;;;4.40;99.90;;;;;;5086938;28;20208;-81
2022/11/26 05:26:21;;;;;;;0.77;0.60;;;4.30;99.90;;;;;;5086261;28;20603;-80
2022/11/26 05:28:48;;;;;;;0.63;0.63;;;4.30;99.90;;;;;;5076611;28;20201;-81
2022/11/26 05:31:15;;;;;;;2.45;1.10;;;4.30;99.90;;;;;;5084608;28;20384;-81
2022/11/26 05:33:42;;;;;;;9.07;1.73;;;4.20;99.90;;;;;;5081369;28;20195;-81
2022/11/26 05:36:10;;;;;;;1.17;1.17;;;4.20;99.90;;;;;;5071055;28;20670;-80
2022/11/26 05:38:37;;;;;;;1.77;1.38;;;4.20;99.90;;;;;;5067710;28;20205;-81
2022/11/26 05:41:04;;;;;;;1.60;1.50;;;4.20;99.90;;;;;;5069728;28;20227;-81
2022/11/26 05:43:31;;;;;;;2.60;1.42;;;4.30;99.90;;;;;;5083739;28;20198;-81
2022/11/26 05:46:02;;;;;;;1.70;1.60;;;4.30;99.90;;;;;;5076252;28;20750;-80
2022/11/26 05:48:29;;;;;;;0.93;0.88;;;4.50;99.90;;;;;;5071969;28;20197;-80
2022/11/26 05:50:57;;;;;;;1.75;0.95;;;4.20;99.90;;;;;;5074687;28;20265;-81
2022/11/26 05:53:26;;;;;;;0.88;0.77;;;4.30;99.90;;;;;;5068028;28;20195;-80
2022/11/26 05:55:53;;;;;;;0.60;0.60;;;4.20;99.90;;;;;;5065882;28;20209;-81
2022/11/26 05:58:20;;;;;;;4.53;1.27;;;4.20;99.90;;;;;;5082356;28;20282;-80
2022/11/26 06:00:46;;;;;;;1.25;1.15;;;4.20;99.90;;;;;;5069576;28;20249;-81
2022/11/26 06:03:13;;;;;;;4.65;1.10;;;4.10;99.90;;;;;;5085201;28;20198;-80
2022/11/26 06:05:40;;;;;;;2.67;2.47;;;4.10;99.90;;;;;;5085580;28;20648;-81
2022/11/26 06:08:07;;;;;;;1.20;0.57;;;4.00;99.90;;;;;;5068113;28;20279;-80
2022/11/26 06:10:35;;;;;;;1.20;1.10;;;4.40;99.90;;;;;;5076242;28;20201;-80
2022/11/26 06:13:02;;;;;;;0.98;0.68;;;3.90;99.90;;;;;;5086673;28;20282;-81
2022/11/26 06:15:29;;;;;;;2.15;1.00;;;3.70;99.90;;;;;;5067466;28;20278;-81
2022/11/26 06:17:56;;;;;;;0.85;0.70;;;3.50;99.90;;;;;;5079627;28;20205;-80
2022/11/26 06:20:22;;;;;;;0.60;0.50;;;3.70;99.90;;;;;;5087068;28;20222;-81
2022/11/26 06:22:49;;;;;;;1.85;1.05;;;3.70;99.90;;;;;;5078067;28;20190;-82
2022/11/26 06:25:16;;;;;;;1.52;1.42;;;3.90;99.90;;;;;;5077118;28;20723;-80
2022/11/26 06:27:44;;;;;;;0.80;0.77;;;3.70;99.90;;;;;;5077062;28;20199;-80
2022/11/26 06:30:12;;;;;;;0.50;0.35;;;3.70;99.90;;;;;;5077213;28;20286;-80
2022/11/26 06:32:39;;;;;;;0.95;0.90;;;3.70;99.90;;;;;;5076542;28;20214;-81
2022/11/26 06:35:06;;;;;;;0.88;0.82;;;3.70;99.90;;;;;;5075524;28;20187;-81
2022/11/26 06:37:33;;;;;;;2.10;1.50;;;3.60;99.90;;;;;;5075441;28;20466;-81
2022/11/26 06:40:00;;;;;;;0.60;0.60;;;3.50;99.90;;;;;;5080191;28;20222;-81
2022/11/26 06:42:28;;;;;;;1.60;1.40;;;3.60;99.90;;;;;;5081638;28;20203;-81
2022/11/26 06:44:56;;;;;;;1.17;1.13;;;3.60;99.90;;;;;;5081727;28;20493;-81
2022/11/26 06:47:23;;;;;;;1.23;1.15;;;3.60;99.90;;;;;;5079750;28;20638;-81
2022/11/26 06:49:50;;;;;;;1.85;1.63;;;3.50;99.90;;;;;;5083047;28;20205;-81
2022/11/26 06:52:16;;;;;;;1.45;1.00;;;3.60;99.90;;;;;;5080361;28;20203;-81
2022/11/26 06:54:43;;;;;;;1.08;0.98;;;3.60;99.90;;;;;;5082131;28;20203;-81
2022/11/26 06:57:10;;;;;;;0.80;0.80;;;3.50;99.90;;;;;;5080767;28;20195;-81
2022/11/26 06:59:37;;;;;;;0.75;0.75;;;3.50;99.90;;;;;;5076585;28;20202;-80
2022/11/26 07:02:05;;;;;;;1.23;0.80;;;3.50;99.90;;;;;;5079202;28;20672;-81
2022/11/26 07:04:32;;;;;;;1.92;1.58;;;3.50;99.90;;;;;;5070886;28;20201;-81
2022/11/26 07:06:58;;;;;;;0.50;0.50;;;3.50;99.90;;;;;;5081386;28;20197;-81
2022/11/26 07:09:25;;;;;;;3.03;2.35;;;3.40;99.90;;;;;;5071300;28;20285;-81
2022/11/26 07:11:52;;;;;;;3.53;2.70;;;3.40;99.90;;;;;;5090007;28;20314;-80
2022/11/26 07:14:21;;;;;;;2.58;1.20;;;3.40;99.90;;;;;;5089380;28;20205;-80
2022/11/26 07:16:48;;;;;;;2.38;2.03;;;3.40;99.90;;;;;;5085966;28;20756;-80
2022/11/26 07:19:16;;;;;;;5.75;2.85;;;3.30;99.90;;;;;;5089229;28;20203;-79
2022/11/26 07:21:42;;;;;;;2.55;1.90;;;3.30;99.90;;;;;;5089469;28;20254;-79
2022/11/26 07:24:09;;;;;;;2.70;1.77;;;3.30;99.90;;;;;;5083830;28;20207;-80
2022/11/26 07:26:36;;;;;;;1.40;1.35;;;3.30;99.90;;;;;;5073830;28;20198;-80
2022/11/26 07:29:03;;;;;;;4.28;3.60;;;3.30;99.90;;;;;;5079639;28;20299;-80
2022/11/26 07:31:30;;;;;;;9.68;4.80;;;3.20;99.90;;;;;;5086075;28;20202;-81
2022/11/26 07:33:57;;;;;;;2.53;1.80;;;3.30;99.90;;;;;;5080645;28;20637;-79
2022/11/26 07:36:27;;;;;;;6.22;2.55;;;3.30;99.90;;;;;;5090377;28;20202;-79
2022/11/26 07:38:54;;;;;;;2.53;1.95;;;3.30;99.90;;;;;;5072748;28;20201;-79
2022/11/26 07:41:21;;;;;;;3.17;2.10;;;3.30;99.90;;;;;;5074050;28;20215;-79
2022/11/26 07:43:48;;;;;;;2.65;2.25;;;3.40;99.90;;;;;;5087082;28;20205;-79
2022/11/26 07:46:17;;;;;;;2.20;1.88;;;3.40;99.90;;;;;;5089193;28;20558;-80
2022/11/26 07:48:44;;;;;;;3.10;2.83;;;3.40;99.90;;;;;;5086312;28;20223;-79
2022/11/26 07:51:17;;;;;;;1.75;1.58;;;3.40;99.90;;;;;;5069961;28;20214;-80
2022/11/26 07:53:46;;;;;;;3.53;2.70;;;3.50;99.90;;;;;;5074032;28;20197;-79
2022/11/26 07:56:13;;;;;;;1.95;1.25;;;3.60;99.90;;;;;;5087876;28;20199;-86
2022/11/26 07:58:40;;;;;;;2.38;2.28;;;3.70;99.90;;;;;;5078412;28;20251;-81
2022/11/26 08:01:08;;;;;;;3.13;2.47;;;3.80;99.90;;;;;;5085885;28;21472;-81
2022/11/26 08:03:38;;;;;;;1.88;1.77;;;3.90;99.90;;;;;;5081469;28;20191;-81
2022/11/26 08:06:07;;;;;;;7.20;1.67;;;4.00;99.90;;;;;;5085842;28;20279;-81
2022/11/26 08:08:35;;;;;;;2.50;2.28;;;4.00;99.90;;;;;;5078048;28;20202;-81
2022/11/26 08:11:04;;;;;;;1.58;1.48;;;4.10;99.90;;;;;;5086697;28;20200;-81
2022/11/26 08:13:31;;;;;;;1.67;1.25;;;4.10;99.90;;;;;;5084324;28;20688;-81
2022/11/26 08:15:57;;;;;;;2.08;1.83;;;4.20;99.90;;;;;;5087615;28;20251;-81
2022/11/26 08:18:24;;;;;;;1.58;1.30;;;4.30;99.90;;;;;;5081757;28;20301;-80
2022/11/26 08:20:55;;;;;;;4.68;4.05;;;4.30;99.90;;;;;;5069738;28;20219;-81
2022/11/26 08:23:22;;;;;;;7.10;3.28;;;4.30;99.90;;;;;;5088258;28;20209;-79
2022/11/26 08:25:49;;;;;;;2.22;1.98;;;4.40;99.90;;;;;;5089512;28;20206;-81
2022/11/26 08:28:18;;;;;;;1.13;1.02;;;4.40;99.90;;;;;;5071504;28;20199;-80
2022/11/26 08:30:45;;;;;;;1.48;1.30;;;4.50;99.90;;;;;;5069618;28;20196;-81
2022/11/26 08:33:12;;;;;;;2.65;2.45;;;4.60;99.90;;;;;;5076599;28;20207;-80
2022/11/26 08:35:39;;;;;;;2.00;1.75;;;4.60;99.90;;;;;;5087334;28;20273;-80
2022/11/26 08:38:05;;;;;;;3.88;1.52;;;4.70;99.90;;;;;;5077110;28;20251;-81
2022/11/26 08:40:32;;;;;;;1.58;1.27;;;4.70;99.90;;;;;;5088851;28;20229;-81
2022/11/26 08:42:59;;;;;;;1.95;1.50;;;4.80;99.90;;;;;;5078515;28;20218;-81
2022/11/26 08:45:27;;;;;;;1.55;1.45;;;4.80;99.90;;;;;;5089124;28;20211;-81
2022/11/26 08:47:55;;;;;;;4.00;1.88;;;4.80;99.90;;;;;;5085097;28;20497;-82
2022/11/26 08:50:21;;;;;;;3.03;1.75;;;4.80;99.90;;;;;;5085680;28;20215;-81
2022/11/26 08:52:48;;;;;;;2.78;1.63;;;4.90;99.90;;;;;;5076944;28;20195;-80
2022/11/26 08:55:15;;;;;;;3.72;2.63;;;4.90;99.90;;;;;;5078427;28;20191;-81
2022/11/26 08:57:42;;;;;;;1.80;1.70;;;4.90;99.90;;;;;;5075547;28;20691;-81
2022/11/26 09:00:10;;;;;;;1.40;1.30;;;4.90;99.90;;;;;;5080122;28;20437;-81
2022/11/26 09:02:38;;;;;;;2.15;1.95;;;4.90;99.90;;;;;;5078701;28;20195;-82
2022/11/26 09:05:06;;;;;;;1.20;0.98;;;4.90;99.90;;;;;;5078867;28;20679;-81
2022/11/26 09:07:32;;;;;;;2.95;1.45;;;4.90;99.90;;;;;;5081024;28;20198;-81
2022/11/26 09:09:59;;;;;;;3.50;2.05;;;5.00;99.90;;;;;;5079412;28;20568;-81
2022/11/26 09:12:26;;;;;;;3.63;1.05;;;5.00;99.90;;;;;;5081366;28;20218;-81
2022/11/26 09:14:53;;;;;;;2.00;1.35;;;5.10;99.90;;;;;;5077895;28;20222;-80
2022/11/26 09:17:20;;;;;;;1.55;1.27;;;5.20;99.90;;;;;;5079253;28;20282;-81
2022/11/26 09:19:48;;;;;;;2.28;2.08;;;5.20;99.90;;;;;;5079378;28;20750;-81
2022/11/26 09:22:15;;;;;;;3.35;2.42;;;5.40;99.90;;;;;;5079468;28;20250;-80
2022/11/26 09:24:41;;;;;;;1.83;1.73;;;5.30;99.90;;;;;;5076085;28;20222;-81
2022/11/26 09:27:10;;;;;;;1.85;1.20;;;5.40;99.90;;;;;;5080511;28;20274;-80
2022/11/26 09:29:37;;;;;;;3.08;1.95;;;5.40;99.90;;;;;;5084849;28;20203;-81
2022/11/26 09:32:04;;;;;;;3.50;1.65;;;5.40;99.90;;;;;;5070956;28;20187;-81
2022/11/26 09:34:31;;;;;;;2.55;2.05;;;5.40;99.90;;;;;;5077576;28;20203;-81
2022/11/26 09:36:59;;;;;;;1.35;1.20;;;5.50;99.90;;;;;;5080114;28;21681;-80
2022/11/26 09:39:26;;;;;;;1.52;1.42;;;5.60;99.90;;;;;;5085632;28;20552;-81
2022/11/26 09:42:00;;;;;;;2.70;2.45;;;5.60;99.90;;;;;;5082689;28;20230;-80
2022/11/26 09:44:44;;;;;;;2.20;1.48;;;5.70;99.90;;;;;;5079637;28;20202;-80
2022/11/26 09:47:15;;;;;;;1.77;1.30;;;5.70;99.90;;;;;;5086276;28;20597;-80
2022/11/26 09:49:59;;;;;;;1.52;1.42;;;5.70;99.90;;;;;;5084333;28;20415;-81
2022/11/26 09:52:34;;;;;;;4.43;2.17;;;5.80;99.90;;;;;;5082269;28;20186;-81
2022/11/26 09:55:11;;;;;;;3.50;1.42;;;5.80;99.90;;;;;;5086619;28;20190;-81
2022/11/26 09:57:42;;;;;;;3.22;1.38;;;5.80;99.90;;;;;;5084771;28;20202;-80
2022/11/26 10:00:25;;;;;;;2.03;1.25;;;5.90;99.90;;;;;;5074669;28;20295;-80
2022/11/26 10:02:53;;;;;;;4.55;1.58;;;6.00;99.90;;;;;;5075394;28;20205;-80
2022/11/26 10:05:22;;;;;;;5.00;2.58;;;6.10;99.90;;;;;;5080196;28;20201;-80
2022/11/26 10:08:03;;;;;;;2.85;1.65;;;6.10;99.90;;;;;;5072968;28;20203;-81
2022/11/26 10:10:38;;;;;;;1.42;1.33;;;6.10;99.90;;;;;;5087871;28;20202;-80
2022/11/26 10:13:16;;;;;;;8.98;2.25;;;6.10;99.90;;;;;;5076804;28;20382;-81
2022/11/26 10:15:49;;;;;;;3.45;1.00;;;6.10;99.90;;;;;;5088181;28;20249;-80
2022/11/26 10:18:25;;;;;;;1.70;1.60;;;6.20;99.90;;;;;;5085904;28;20697;-80
2022/11/26 10:21:04;;;;;;;1.83;1.58;;;6.20;99.90;;;;;;5075503;28;20231;-80
2022/11/26 10:23:36;;;;;;;2.75;1.98;;;6.20;99.90;;;;;;5071994;28;20198;-80
2022/11/26 10:26:07;;;;;;;2.00;1.90;;;6.30;99.90;;;;;;5067886;28;20286;-81
2022/11/26 10:28:39;;;;;;;4.00;2.50;;;6.30;99.90;;;;;;5079905;28;20275;-80
2022/11/26 10:31:17;;;;;;;1.05;0.80;;;6.40;99.90;;;;;;5085899;28;20195;-79
2022/11/26 10:33:51;;;;;;;2.92;2.00;;;6.50;99.90;;;;;;5075808;28;20193;-79
2022/11/26 10:36:24;;;;;;;2.40;2.20;;;6.50;99.90;;;;;;5086491;28;20284;-81
2022/11/26 10:38:54;;;;;;;2.08;1.58;;;6.50;99.90;;;;;;5075359;28;20223;-80
2022/11/26 10:41:23;;;;;;;2.15;1.98;;;6.60;99.90;;;;;;5068584;28;20247;-81
2022/11/26 10:43:50;;;;;;;5.53;2.53;;;6.50;99.90;;;;;;5077646;28;20194;-81
2022/11/26 10:46:32;;;;;;;1.63;1.52;;;6.70;99.90;;;;;;5086389;28;20308;-81
2022/11/26 10:49:21;;;;;;;2.95;1.85;;;6.80;99.90;;;;;;5068401;28;20210;-81
2022/11/26 10:51:50;;;;;;;7.45;1.63;;;6.90;99.90;;;;;;5071599;28;20190;-81
2022/11/26 10:54:28;;;;;;;1.40;1.30;;;7.00;99.90;;;;;;5086697;28;20214;-81
2022/11/26 10:56:56;;;;;;;1.65;1.23;;;7.10;99.90;;;;;;5085401;28;20719;-81
2022/11/26 10:59:26;;;;;;;1.37;1.27;;;7.10;99.90;;;;;;5070274;28;20244;-81
2022/11/26 11:01:54;;;;;;;0.85;0.85;;;7.10;99.90;;;;;;5073833;28;20656;-81
2022/11/26 11:04:30;;;;;;;0.93;0.90;;;7.10;99.90;;;;;;5068803;28;20197;-81
2022/11/26 11:06:58;;;;;;;1.73;1.10;;;7.00;99.90;;;;;;5073390;28;20715;-81
2022/11/26 11:09:29;;;;;;;1.53;0.93;;;7.00;99.90;;;;;;5070351;28;21032;-82
2022/11/26 11:12:23;;;;;;;1.77;1.63;;;7.10;99.90;;;;;;5087159;28;20719;-81
2022/11/26 11:14:51;;;;;;;1.57;0.80;;;7.20;99.90;;;;;;5030388;28;20636;-81
2022/11/26 11:17:30;;;;;;;2.77;2.00;;;7.30;99.90;;;;;;5067050;28;20687;-81
2022/11/26 11:19:58;;;;;;;4.87;1.97;;;7.50;99.90;;;;;;5067189;28;20609;-81
2022/11/26 11:22:26;;;;;;;2.80;1.80;;;7.60;99.90;;;;;;5076971;28;20661;-81
2022/11/26 11:24:56;;;;;;;3.43;2.00;;;7.70;99.90;;;;;;5078873;28;21089;-82
2022/11/26 11:27:25;;;;;;;1.37;1.20;;;7.90;99.90;;;;;;5083870;28;20660;-81
2022/11/26 11:29:52;;;;;;;13.47;2.00;;;7.90;99.90;;;;;;5070782;28;20631;-81
2022/11/26 11:32:38;;;;;;;3.20;1.83;;;7.90;99.90;;;;;;5072803;28;20618;-81
2022/11/26 11:35:30;;;;;;;3.90;2.33;;;7.90;99.90;;;;;;5076892;28;20623;-81
2022/11/26 11:37:58;;;;;;;1.50;1.20;;;7.80;99.90;;;;;;5063321;28;20949;-81
2022/11/26 11:40:29;;;;;;;1.37;1.17;;;7.70;99.90;;;;;;5073268;28;20624;-81
2022/11/26 11:42:59;;;;;;;1.93;1.83;;;7.60;99.90;;;;;;5084226;28;20776;-81
2022/11/26 11:45:33;;;;;;;1.33;1.23;;;7.80;99.90;;;;;;5089933;28;20622;-81
2022/11/26 11:48:10;;;;;;;3.37;1.87;;;7.80;99.90;;;;;;5086877;28;20628;-81
2022/11/26 11:50:42;;;;;;;4.20;2.50;;;7.70;99.90;;;;;;5075897;28;20628;-84
2022/11/26 11:53:32;;;;;;;1.33;1.23;;;7.40;99.90;;;;;;5089351;28;20617;-81
2022/11/26 11:56:17;;;;;;;1.60;1.50;;;7.70;99.90;;;;;;5088675;28;20625;-81
2022/11/26 11:59:01;;;;;;;1.70;1.60;;;7.80;99.90;;;;;;5077124;28;20628;-81
2022/11/26 12:01:46;;;;;;;5.27;2.47;;;7.90;99.90;;;;;;5086077;28;20659;-81
2022/11/26 12:04:25;;;;;;;4.00;2.10;;;8.00;99.90;;;;;;5079723;28;20618;-81
2022/11/26 12:07:24;;;;;;;2.50;1.70;;;8.00;99.90;;;;;;5082965;28;20772;-81
2022/11/26 12:10:00;;;;;;;1.67;1.57;;;7.90;99.90;;;;;;5070119;28;20715;-81
2022/11/26 12:12:33;;;;;;;2.57;1.43;;;8.00;99.90;;;;;;5075012;28;20631;-81
2022/11/26 12:15:06;;;;;;;1.90;1.80;;;7.90;99.90;;;;;;5076117;28;21247;-81
2022/11/26 12:17:38;;;;;;;1.60;1.07;;;7.90;99.90;;;;;;5080047;28;20732;-81
2022/11/26 12:20:14;;;;;;;4.37;1.23;;;7.90;99.90;;;;;;5077814;28;20616;-81
2022/11/26 12:22:47;;;;;;;2.40;1.43;;;7.90;99.90;;;;;;5082059;28;21328;-81
2022/11/26 12:25:19;;;;;;;3.83;1.63;;;7.90;99.90;;;;;;5089925;28;21193;-81
2022/11/26 12:27:55;;;;;;;1.97;1.87;;;8.00;99.90;;;;;;5087407;28;20835;-81
2022/11/26 12:30:26;;;;;;;2.50;2.07;;;8.00;99.90;;;;;;5088325;28;20626;-81
2022/11/26 12:33:00;;;;;;;2.07;1.40;;;8.00;99.90;;;;;;5074753;28;20633;-81
2022/11/26 12:35:31;;;;;;;1.57;1.20;;;8.00;99.90;;;;;;5086746;28;20651;-81
2022/11/26 12:38:00;;;;;;;1.60;1.50;;;8.00;99.90;;;;;;5087747;28;20631;-81
2022/11/26 12:40:34;;;;;;;2.53;2.33;;;8.00;99.90;;;;;;5089688;28;20624;-81
2022/11/26 12:43:09;;;;;;;1.40;1.30;;;8.00;99.90;;;;;;5076742;28;20671;-81
2022/11/26 12:45:44;;;;;;;1.17;1.07;;;8.00;99.90;;;;;;5069316;28;20716;-83
2022/11/26 12:48:23;;;;;;;1.40;1.30;;;8.00;99.90;;;;;;5085002;28;20710;-81
2022/11/26 12:50:54;;;;;;;3.15;2.10;;;7.80;99.90;;;;;;5088444;28;20713;-81
2022/11/26 12:53:33;;;;;;;2.57;1.97;;;7.80;99.90;;;;;;5077895;28;20199;-81
2022/11/26 12:56:08;;;;;;;2.83;2.63;;;7.80;99.90;;;;;;5074314;28;20621;-82
2022/11/26 12:58:46;;;;;;;3.07;1.63;;;7.80;99.90;;;;;;5076680;28;20623;-80
2022/11/26 13:01:13;;;;;;;1.80;1.17;;;7.80;99.90;;;;;;5078952;28;20624;-80
2022/11/26 13:03:41;;;;;;;2.33;1.43;;;7.90;99.90;;;;;;5080271;28;20627;-80
2022/11/26 13:06:20;;;;;;;3.43;1.33;;;7.90;99.90;;;;;;5077308;28;20727;-81
2022/11/26 13:08:53;;;;;;;0.90;0.90;;;7.90;99.90;;;;;;5076993;28;21206;-80
2022/11/26 13:11:30;;;;;;;1.20;1.10;;;8.00;99.90;;;;;;5083167;28;20643;-81
2022/11/26 13:14:04;;;;;;;1.30;1.20;;;8.00;99.90;;;;;;5077348;28;20728;-80